createdAt,value
2019-05-16T00:03:01.317Z,8.40
2019-05-16T00:05:31.123Z,8.40
2019-05-16T00:08:12.416Z,8.40
2019-05-16T00:10:40.034Z,8.20
2019-05-16T00:13:14.651Z,8.10
2019-05-16T00:15:48.093Z,8.10
2019-05-16T00:18:17.841Z,8.00
2019-05-16T00:20:49.122Z,8.10
2019-05-16T00:23:18.252Z,8.00
2019-05-16T00:26:47.867Z,8.10
2019-05-16T00:29:28.703Z,8.10
2019-05-16T00:35:28.589Z,8.10
2019-05-16T00:38:38.003Z,7.90
2019-05-16T00:41:09.426Z,7.90
2019-05-16T00:43:59.239Z,7.90
2019-05-16T00:46:33.947Z,7.80
2019-05-16T00:49:08.116Z,7.60
2019-05-16T00:52:23.572Z,7.50
2019-05-16T00:55:00.916Z,7.40
2019-05-16T00:57:32.247Z,7.40
2019-05-16T01:00:49.439Z,7.50
2019-05-16T01:03:20.419Z,7.60
2019-05-16T01:05:49.238Z,7.60
2019-05-16T01:08:25.164Z,7.60
2019-05-16T01:10:59.928Z,7.40
2019-05-16T01:14:10.955Z,7.10
2019-05-16T01:16:39.683Z,7.20
2019-05-16T01:19:14.145Z,7.30
2019-05-16T01:21:48.235Z,7.40
2019-05-16T01:24:18.618Z,7.50
2019-05-16T01:26:52.908Z,7.50
2019-05-16T01:29:21.805Z,7.50
2019-05-16T01:31:52.538Z,7.50
2019-05-16T01:34:30.252Z,7.10
2019-05-16T01:36:59.185Z,6.80
2019-05-16T01:39:30.848Z,6.70
2019-05-16T01:42:02.649Z,6.80
2019-05-16T01:44:30.447Z,7.00
2019-05-16T01:47:03.347Z,7.10
2019-05-16T01:49:35.232Z,7.20
2019-05-16T01:52:08.514Z,7.20
2019-05-16T01:54:49.244Z,7.10
2019-05-16T01:57:20.999Z,7.10
2019-05-16T01:59:48.980Z,7.10
2019-05-16T02:02:20.543Z,7.00
2019-05-16T02:05:49.257Z,7.10
2019-05-16T02:08:23.855Z,6.90
2019-05-16T02:10:52.642Z,6.70
2019-05-16T02:13:28.633Z,6.80
2019-05-16T02:15:59.305Z,6.80
2019-05-16T02:18:33.952Z,6.70
2019-05-16T02:21:07.736Z,6.70
2019-05-16T02:23:38.204Z,6.80
2019-05-16T02:26:13.043Z,6.80
2019-05-16T02:32:01.578Z,6.80
2019-05-16T02:34:53.420Z,6.80
2019-05-16T02:37:34.412Z,6.80
2019-05-16T02:40:01.228Z,6.70
2019-05-16T02:42:36.277Z,6.70
2019-05-16T02:45:33.824Z,6.70
2019-05-16T02:48:05.744Z,6.60
2019-05-16T02:50:41.433Z,6.50
2019-05-16T02:53:13.504Z,6.40
2019-05-16T02:55:44.698Z,6.40
2019-05-16T02:58:22.812Z,6.50
2019-05-16T03:00:53.902Z,6.30
2019-05-16T03:03:31.680Z,6.40
2019-05-16T03:06:01.465Z,6.40
2019-05-16T03:08:32.166Z,6.10
2019-05-16T03:11:04.297Z,5.90
2019-05-16T03:13:35.968Z,5.90
2019-05-16T03:16:11.763Z,6.00
2019-05-16T03:18:41.648Z,6.00
2019-05-16T03:21:13.272Z,6.10
2019-05-16T03:23:50.592Z,6.10
2019-05-16T03:26:20.970Z,6.10
2019-05-16T03:28:52.363Z,5.90
2019-05-16T03:31:24.883Z,5.90
2019-05-16T03:33:59.850Z,5.70
2019-05-16T03:36:34.776Z,5.60
2019-05-16T03:39:05.194Z,5.70
2019-05-16T03:41:33.779Z,5.80
2019-05-16T03:44:02.424Z,5.90
2019-05-16T03:46:41.372Z,5.80
2019-05-16T03:49:11.531Z,5.90
2019-05-16T03:51:43.420Z,5.90
2019-05-16T03:54:12.624Z,5.80
2019-05-16T03:56:51.383Z,5.80
2019-05-16T03:59:21.553Z,5.90
2019-05-16T04:01:51.195Z,5.90
2019-05-16T04:04:27.549Z,5.80
2019-05-16T04:07:53.045Z,5.80
2019-05-16T04:10:25.321Z,5.80
2019-05-16T04:12:56.573Z,5.90
2019-05-16T04:15:25.299Z,5.90
2019-05-16T04:17:53.954Z,6.00
2019-05-16T04:20:23.311Z,6.10
2019-05-16T04:23:01.601Z,6.50
2019-05-16T04:25:33.299Z,7.30
2019-05-16T04:28:07.085Z,8.40
2019-05-16T04:30:41.520Z,9.40
2019-05-16T04:33:17.297Z,10.20
2019-05-16T04:35:51.808Z,11.40
2019-05-16T04:38:31.590Z,12.60
2019-05-16T04:40:55.576Z,13.20
2019-05-16T04:43:26.228Z,14.20
2019-05-16T04:45:56.045Z,15.20
2019-05-16T04:48:24.631Z,16.20
2019-05-16T04:50:54.325Z,16.90
2019-05-16T04:53:25.742Z,17.50
2019-05-16T04:56:03.768Z,18.00
2019-05-16T04:58:40.729Z,18.30
2019-05-16T05:01:11.076Z,19.00
2019-05-16T05:04:00.601Z,19.80
2019-05-16T05:06:20.611Z,20.50
2019-05-16T05:08:57.107Z,20.70
2019-05-16T05:11:25.099Z,21.10
2019-05-16T05:14:00.939Z,21.50
2019-05-16T05:16:35.525Z,22.10
2019-05-16T05:19:20.034Z,22.70
2019-05-16T05:21:51.423Z,23.70
2019-05-16T05:24:43.910Z,24.40
2019-05-16T05:27:15.505Z,24.50
2019-05-16T05:29:55.408Z,25.60
2019-05-16T05:32:50.248Z,23.60
2019-05-16T05:35:27.253Z,23.90
2019-05-16T05:38:00.383Z,23.20
2019-05-16T05:40:29.671Z,19.40
2019-05-16T05:42:59.914Z,19.20
2019-05-16T05:45:34.918Z,17.70
2019-05-16T05:48:05.723Z,15.50
2019-05-16T05:50:41.358Z,15.70
2019-05-16T05:53:10.285Z,16.20
2019-05-16T05:55:50.659Z,16.50
2019-05-16T05:58:20.829Z,16.70
2019-05-16T06:00:55.392Z,16.40
2019-05-16T06:03:27.124Z,18.20
2019-05-16T06:05:56.299Z,20.40
2019-05-16T06:08:27.645Z,19.60
2019-05-16T06:11:20.316Z,17.30
2019-05-16T06:13:51.194Z,16.50
2019-05-16T06:16:22.027Z,18.20
2019-05-16T06:19:00.930Z,18.30
2019-05-16T06:21:46.050Z,17.90
2019-05-16T06:24:25.059Z,16.20
2019-05-16T06:26:53.877Z,17.10
2019-05-16T06:29:30.804Z,16.30
2019-05-16T06:32:10.165Z,18.10
2019-05-16T06:34:40.470Z,19.80
2019-05-16T06:37:09.819Z,19.00
2019-05-16T06:39:45.557Z,18.80
2019-05-16T06:42:22.078Z,18.60
2019-05-16T06:44:56.639Z,18.70
2019-05-16T06:47:25.287Z,17.50
2019-05-16T06:50:05.885Z,18.20
2019-05-16T06:52:34.915Z,19.60
2019-05-16T06:55:10.333Z,20.30
2019-05-16T06:57:50.479Z,20.90
2019-05-16T07:00:25.097Z,22.00
2019-05-16T07:03:00.419Z,23.00
2019-05-16T07:05:31.960Z,21.20
2019-05-16T07:08:11.170Z,20.30
2019-05-16T07:10:41.593Z,20.00
2019-05-16T07:13:13.467Z,19.40
2019-05-16T07:15:44.773Z,20.80
2019-05-16T07:18:21.475Z,21.80
2019-05-16T07:20:56.114Z,21.90
2019-05-16T07:23:29.858Z,23.30
2019-05-16T07:26:17.443Z,23.20
2019-05-16T07:29:01.281Z,21.00
2019-05-16T07:31:30.212Z,21.90
2019-05-16T07:34:05.125Z,18.90
2019-05-16T07:36:36.948Z,20.10
2019-05-16T07:39:06.172Z,21.60
2019-05-16T07:41:35.347Z,19.10
2019-05-16T07:44:04.094Z,19.40
2019-05-16T07:46:51.624Z,20.70
2019-05-16T07:49:21.709Z,21.40
2019-05-16T07:51:53.181Z,19.10
2019-05-16T07:54:23.996Z,20.00
2019-05-16T07:56:59.419Z,19.70
2019-05-16T07:59:29.927Z,19.20
2019-05-16T08:02:04.783Z,17.50
2019-05-16T08:04:33.612Z,17.70
2019-05-16T08:07:07.647Z,19.40
2019-05-16T08:10:41.319Z,20.10
2019-05-16T08:13:11.910Z,19.50
2019-05-16T08:15:40.678Z,21.30
2019-05-16T08:18:13.325Z,22.70
2019-05-16T08:20:41.943Z,21.70
2019-05-16T08:23:36.839Z,19.70
2019-05-16T08:26:43.153Z,17.50
2019-05-16T08:29:13.406Z,18.40
2019-05-16T08:31:43.446Z,19.00
2019-05-16T08:34:12.500Z,18.70
2019-05-16T08:36:51.855Z,18.30
2019-05-16T08:39:21.569Z,17.30
2019-05-16T08:41:51.918Z,17.80
2019-05-16T08:44:26.665Z,19.20
2019-05-16T08:46:58.329Z,19.70
2019-05-16T08:49:30.729Z,20.60
2019-05-16T08:52:01.331Z,21.30
2019-05-16T08:54:31.765Z,21.90
2019-05-16T08:57:26.098Z,21.80
2019-05-16T08:59:41.081Z,22.20
2019-05-16T09:02:15.409Z,22.70
2019-05-16T09:04:53.271Z,23.80
2019-05-16T09:07:22.578Z,22.60
2019-05-16T09:09:59.774Z,22.00
2019-05-16T09:12:29.377Z,21.00
2019-05-16T09:15:28.966Z,19.70
2019-05-16T09:18:19.923Z,20.30
2019-05-16T09:20:52.582Z,19.10
2019-05-16T09:23:26.836Z,21.10
2019-05-16T09:25:58.497Z,21.60
2019-05-16T09:28:28.248Z,20.20
2019-05-16T09:30:59.256Z,21.10
2019-05-16T09:33:31.244Z,21.70
2019-05-16T09:36:02.874Z,20.60
2019-05-16T09:38:38.059Z,18.50
2019-05-16T09:41:08.521Z,19.60
2019-05-16T09:43:43.140Z,20.80
2019-05-16T09:46:16.974Z,19.40
2019-05-16T09:49:11.649Z,19.90
2019-05-16T09:51:21.537Z,19.80
2019-05-16T09:53:56.688Z,18.90
2019-05-16T09:56:27.002Z,19.10
2019-05-16T09:58:57.405Z,18.40
2019-05-16T10:01:27.732Z,18.70
2019-05-16T10:04:06.514Z,19.00
2019-05-16T10:06:36.922Z,18.70
2019-05-16T10:09:08.794Z,18.10
2019-05-16T10:11:42.262Z,17.70
2019-05-16T10:14:11.492Z,17.90
2019-05-16T10:16:47.756Z,17.50
2019-05-16T10:19:16.970Z,17.50
2019-05-16T10:22:10.696Z,16.70
2019-05-16T10:24:39.382Z,16.80
2019-05-16T10:27:10.704Z,17.10
2019-05-16T10:29:48.708Z,17.10
2019-05-16T10:32:19.303Z,17.60
2019-05-16T10:38:20.070Z,17.10
2019-05-16T10:40:58.691Z,16.90
2019-05-16T10:43:27.602Z,17.40
2019-05-16T10:46:17.952Z,17.70
2019-05-16T10:52:07.072Z,17.40
2019-05-16T10:54:37.440Z,17.30
2019-05-16T10:57:21.569Z,17.40
2019-05-16T11:00:06.809Z,17.60
2019-05-16T11:02:29.966Z,16.80
2019-05-16T11:05:20.630Z,17.00
2019-05-16T11:07:36.870Z,17.30
2019-05-16T11:10:08.135Z,16.70
2019-05-16T11:12:50.675Z,17.20
2019-05-16T11:15:17.230Z,17.30
2019-05-16T11:17:48.852Z,17.60
2019-05-16T11:20:40.015Z,17.70
2019-05-16T11:23:22.257Z,17.70
2019-05-16T11:26:09.553Z,17.80
2019-05-16T11:28:41.282Z,17.80
2019-05-16T11:31:46.931Z,17.80
2019-05-16T11:34:21.472Z,17.70
2019-05-16T11:36:56.998Z,17.80
2019-05-16T11:39:25.975Z,18.20
2019-05-16T11:41:58.526Z,18.10
2019-05-16T11:44:31.348Z,18.70
2019-05-16T11:47:08.297Z,18.80
2019-05-16T11:49:39.296Z,18.40
2019-05-16T11:52:07.867Z,18.80
2019-05-16T11:54:49.113Z,18.90
2019-05-16T11:57:19.886Z,19.00
2019-05-16T11:59:49.165Z,18.50
2019-05-16T12:02:18.053Z,18.60
2019-05-16T12:04:52.996Z,19.50
2019-05-16T12:07:33.318Z,19.90
2019-05-16T12:10:29.244Z,19.90
2019-05-16T12:13:28.173Z,19.90
2019-05-16T12:15:56.610Z,19.30
2019-05-16T12:18:26.755Z,19.10
2019-05-16T12:20:56.573Z,19.10
2019-05-16T12:23:27.754Z,18.80
2019-05-16T12:26:02.436Z,18.70
2019-05-16T12:28:32.180Z,19.00
2019-05-16T12:31:03.919Z,18.40
2019-05-16T12:33:38.359Z,17.60
2019-05-16T12:36:12.980Z,18.40
2019-05-16T12:38:47.524Z,18.50
2019-05-16T12:41:20.850Z,18.90
2019-05-16T12:43:53.637Z,19.00
2019-05-16T12:46:23.867Z,18.20
2019-05-16T12:48:58.200Z,18.40
2019-05-16T12:51:27.097Z,17.90
2019-05-16T12:54:01.783Z,17.80
2019-05-16T12:56:32.445Z,18.30
2019-05-16T12:59:28.123Z,18.40
2019-05-16T13:02:00.209Z,18.00
2019-05-16T13:04:57.116Z,17.90
2019-05-16T13:07:27.405Z,17.60
2019-05-16T13:10:02.405Z,18.20
2019-05-16T13:12:31.168Z,18.70
2019-05-16T13:15:07.072Z,18.50
2019-05-16T13:17:37.167Z,18.20
2019-05-16T13:20:14.129Z,18.20
2019-05-16T13:22:42.802Z,17.70
2019-05-16T13:25:14.263Z,17.10
2019-05-16T13:27:47.453Z,17.20
2019-05-16T13:30:21.672Z,17.20
2019-05-16T13:32:50.276Z,17.30
2019-05-16T13:35:22.380Z,17.60
2019-05-16T13:37:58.011Z,17.20
2019-05-16T13:40:32.556Z,17.30
2019-05-16T13:43:09.498Z,17.50
2019-05-16T13:45:37.899Z,17.40
2019-05-16T13:48:12.586Z,18.20
2019-05-16T13:50:41.434Z,17.50
2019-05-16T13:53:13.395Z,17.40
2019-05-16T13:55:48.009Z,17.30
2019-05-16T13:58:17.913Z,16.90
2019-05-16T14:00:50.527Z,17.10
2019-05-16T14:03:27.531Z,17.30
2019-05-16T14:05:58.029Z,17.60
2019-05-16T14:08:26.853Z,17.40
2019-05-16T14:11:00.748Z,17.70
2019-05-16T14:13:27.862Z,17.50
2019-05-16T14:15:58.445Z,17.60
2019-05-16T14:18:29.805Z,17.70
2019-05-16T14:21:00.697Z,17.90
2019-05-16T14:23:38.230Z,18.30
2019-05-16T14:26:13.143Z,18.90
2019-05-16T14:28:44.512Z,18.80
2019-05-16T14:31:12.428Z,18.50
2019-05-16T14:33:47.526Z,17.90
2019-05-16T14:36:19.317Z,18.30
2019-05-16T14:38:54.147Z,19.00
2019-05-16T14:41:37.361Z,18.80
2019-05-16T14:44:09.546Z,18.10
2019-05-16T14:47:23.586Z,17.80
2019-05-16T14:49:58.524Z,18.00
2019-05-16T14:52:36.648Z,17.90
2019-05-16T14:55:08.971Z,18.30
2019-05-16T14:57:37.605Z,18.50
2019-05-16T15:00:08.662Z,18.10
2019-05-16T15:02:38.710Z,18.00
2019-05-16T15:05:24.510Z,17.90
2019-05-16T15:07:56.938Z,18.00
2019-05-16T15:10:28.893Z,18.00
2019-05-16T15:12:59.655Z,17.80
2019-05-16T15:19:25.871Z,17.80
2019-05-16T15:22:02.890Z,17.10
2019-05-16T15:24:36.911Z,17.20
2019-05-16T15:27:07.916Z,17.40
2019-05-16T15:29:37.759Z,17.20
2019-05-16T15:32:08.487Z,17.10
2019-05-16T15:34:47.665Z,17.20
2019-05-16T15:37:17.545Z,17.40
2019-05-16T15:39:54.331Z,17.20
2019-05-16T15:43:11.570Z,17.30
2019-05-16T15:45:49.900Z,17.60
2019-05-16T15:48:37.456Z,17.20
2019-05-16T15:51:08.986Z,17.30
2019-05-16T15:53:44.159Z,17.60
2019-05-16T15:56:13.219Z,17.70
2019-05-16T15:58:52.016Z,17.40
2019-05-16T16:01:26.898Z,17.50
2019-05-16T16:04:00.702Z,17.70
2019-05-16T16:06:30.170Z,17.90
2019-05-16T16:09:13.347Z,17.90
2019-05-16T16:11:48.733Z,18.20
2019-05-16T16:14:23.227Z,18.20
2019-05-16T16:17:06.733Z,18.10
2019-05-16T16:19:38.293Z,17.90
2019-05-16T16:22:07.753Z,17.80
2019-05-16T16:24:39.644Z,17.60
2019-05-16T16:27:16.584Z,17.60
2019-05-16T16:29:44.897Z,17.60
2019-05-16T16:32:38.005Z,17.70
2019-05-16T16:35:07.937Z,18.00
2019-05-16T16:38:09.926Z,18.20
2019-05-16T16:40:47.795Z,18.10
2019-05-16T16:43:43.343Z,17.90
2019-05-16T16:46:27.112Z,18.10
2019-05-16T16:49:11.152Z,18.10
2019-05-16T16:51:43.049Z,18.20
2019-05-16T16:54:18.268Z,18.30
2019-05-16T16:56:49.902Z,18.30
2019-05-16T16:59:19.304Z,18.10
2019-05-16T17:01:48.064Z,18.10
2019-05-16T17:04:19.951Z,18.00
2019-05-16T17:06:51.309Z,17.90
2019-05-16T17:09:23.205Z,17.80
2019-05-16T17:12:01.724Z,17.80
2019-05-16T17:14:38.862Z,17.60
2019-05-16T17:17:46.637Z,17.40
2019-05-16T17:20:16.598Z,17.30
2019-05-16T17:22:57.265Z,17.30
2019-05-16T17:25:30.793Z,17.10
2019-05-16T17:28:07.930Z,17.10
2019-05-16T17:30:36.935Z,17.00
2019-05-16T17:33:10.226Z,17.00
2019-05-16T17:39:21.728Z,16.90
2019-05-16T17:41:54.996Z,16.70
2019-05-16T17:44:29.087Z,16.70
2019-05-16T17:47:08.444Z,16.70
2019-05-16T17:49:37.290Z,16.70
2019-05-16T17:52:16.561Z,16.80
2019-05-16T17:54:53.168Z,16.80
2019-05-16T17:57:20.441Z,16.80
2019-05-16T17:59:57.249Z,16.80
2019-05-16T18:02:37.784Z,16.80
2019-05-16T18:05:47.244Z,16.80
2019-05-16T18:08:38.991Z,16.80
2019-05-16T18:11:10.888Z,16.70
2019-05-16T18:13:43.232Z,16.60
2019-05-16T18:16:18.160Z,16.60
2019-05-16T18:19:10.855Z,16.60
2019-05-16T18:21:46.408Z,16.60
2019-05-16T18:24:19.421Z,16.50
2019-05-16T18:26:51.264Z,16.50
2019-05-16T18:29:19.897Z,16.40
2019-05-16T18:31:51.204Z,16.40
2019-05-16T18:34:29.163Z,16.30
2019-05-16T18:37:02.031Z,16.20
2019-05-16T18:39:38.313Z,16.10
2019-05-16T18:42:22.037Z,16.00
2019-05-16T18:48:23.708Z,15.90
2019-05-16T18:51:08.102Z,15.80
2019-05-16T18:53:42.909Z,15.70
2019-05-16T18:56:12.854Z,15.70
2019-05-16T18:58:46.441Z,15.50
2019-05-16T19:01:29.667Z,15.40
2019-05-16T19:04:46.549Z,15.40
2019-05-16T19:07:31.086Z,15.20
2019-05-16T19:10:26.967Z,15.20
2019-05-16T19:12:59.817Z,15.00
2019-05-16T19:15:48.953Z,15.00
2019-05-16T19:18:19.705Z,14.90
2019-05-16T19:20:51.325Z,14.80
2019-05-16T19:23:21.939Z,14.70
2019-05-16T19:26:00.284Z,14.70
2019-05-16T19:28:32.592Z,14.60
2019-05-16T19:31:03.591Z,14.60
2019-05-16T19:33:35.209Z,14.60
2019-05-16T19:36:07.308Z,14.60
2019-05-16T19:38:37.413Z,14.60
2019-05-16T19:41:08.091Z,14.70
2019-05-16T19:43:37.464Z,14.70
2019-05-16T19:46:09.008Z,14.60
2019-05-16T19:48:46.465Z,14.50
2019-05-16T19:51:21.205Z,14.40
2019-05-16T19:54:36.472Z,14.40
2019-05-16T19:57:37.207Z,14.30
2019-05-16T20:00:11.263Z,14.30
2019-05-16T20:03:08.702Z,14.20
2019-05-16T20:05:40.176Z,14.20
2019-05-16T20:08:12.640Z,14.10
2019-05-16T20:10:43.931Z,14.10
2019-05-16T20:14:04.390Z,14.00
2019-05-16T20:16:38.787Z,14.00
2019-05-16T20:19:13.536Z,13.90
2019-05-16T20:21:43.229Z,13.80
2019-05-16T20:24:16.733Z,13.80
2019-05-16T20:26:47.894Z,13.80
2019-05-16T20:29:27.820Z,13.70
2019-05-16T20:32:27.590Z,13.60
2019-05-16T20:35:02.768Z,13.60
2019-05-16T20:37:33.923Z,13.70
2019-05-16T20:40:08.447Z,13.90
2019-05-16T20:42:39.585Z,13.90
2019-05-16T20:45:17.000Z,13.80
2019-05-16T20:47:46.836Z,13.90
2019-05-16T20:50:20.916Z,14.10
2019-05-16T20:52:49.903Z,14.30
2019-05-16T20:55:21.194Z,14.30
2019-05-16T20:57:54.354Z,14.30
2019-05-16T21:00:26.805Z,14.30
2019-05-16T21:03:01.565Z,14.30
2019-05-16T21:05:31.249Z,14.40
2019-05-16T21:08:06.569Z,14.40
2019-05-16T21:10:36.609Z,14.40
2019-05-16T21:13:11.161Z,14.20
2019-05-16T21:15:41.978Z,14.20
2019-05-16T21:18:16.721Z,14.40
2019-05-16T21:20:52.025Z,14.30
2019-05-16T21:23:27.252Z,14.20
2019-05-16T21:25:57.153Z,14.20
2019-05-16T21:28:26.376Z,14.20
2019-05-16T21:30:57.376Z,13.80
2019-05-16T21:33:27.236Z,13.70
2019-05-16T21:36:02.836Z,13.70
2019-05-16T21:38:37.402Z,13.50
2019-05-16T21:41:26.981Z,13.20
2019-05-16T21:44:29.412Z,13.30
2019-05-16T21:47:01.797Z,13.30
2019-05-16T21:49:56.838Z,13.20
2019-05-16T21:52:50.074Z,13.10
2019-05-16T21:55:21.517Z,13.10
2019-05-16T21:57:53.175Z,13.10
2019-05-16T22:00:30.664Z,13.10
2019-05-16T22:03:02.492Z,13.20
2019-05-16T22:05:33.800Z,13.10
2019-05-16T22:08:07.220Z,13.00
2019-05-16T22:10:41.518Z,13.00
2019-05-16T22:13:10.430Z,13.00
2019-05-16T22:15:46.451Z,12.90
2019-05-16T22:18:18.431Z,12.90
2019-05-16T22:20:52.006Z,13.10
2019-05-16T22:23:27.224Z,13.10
2019-05-16T22:25:57.001Z,13.00
2019-05-16T22:28:31.523Z,12.90
2019-05-16T22:31:00.228Z,12.90
2019-05-16T22:33:31.627Z,12.80
2019-05-16T22:36:02.216Z,12.80
2019-05-16T22:38:40.221Z,12.70
2019-05-16T22:41:17.086Z,12.70
2019-05-16T22:43:46.741Z,12.60
2019-05-16T22:46:21.369Z,12.60
2019-05-16T22:48:50.031Z,12.70
2019-05-16T22:51:22.419Z,12.70
2019-05-16T22:53:50.234Z,12.60
2019-05-16T22:56:22.414Z,12.70
2019-05-16T22:58:57.428Z,12.60
2019-05-16T23:01:27.159Z,12.60
2019-05-16T23:03:58.405Z,12.60
2019-05-16T23:06:31.477Z,12.60
2019-05-16T23:09:04.209Z,12.60
2019-05-16T23:11:36.316Z,12.70
2019-05-16T23:14:08.028Z,12.80
2019-05-16T23:16:37.826Z,12.80
2019-05-16T23:19:14.035Z,12.70
2019-05-16T23:21:47.256Z,12.60
2019-05-16T23:24:17.422Z,12.60
2019-05-16T23:26:51.355Z,12.50
2019-05-16T23:29:22.427Z,12.50
2019-05-16T23:32:00.040Z,12.60
2019-05-16T23:34:29.777Z,12.60
2019-05-16T23:37:27.675Z,12.60
2019-05-16T23:39:59.555Z,12.60
2019-05-16T23:42:30.159Z,12.60
2019-05-16T23:45:18.036Z,12.60
2019-05-16T23:48:18.312Z,12.60
2019-05-16T23:50:51.576Z,12.50
2019-05-16T23:53:31.501Z,12.40
2019-05-16T23:56:18.670Z,12.40
2019-05-16T23:58:56.842Z,12.30
